createdAt,value
2023-01-19T00:00:34.512Z,97.43
2023-01-19T00:05:36.792Z,97.20
2023-01-19T00:10:40.306Z,97.57
2023-01-19T00:15:42.485Z,97.95
2023-01-19T00:20:45.441Z,98.64
2023-01-19T00:25:48.736Z,98.81
2023-01-19T00:30:50.847Z,98.27
2023-01-19T00:35:53.804Z,98.39
2023-01-19T00:40:57.237Z,98.54
2023-01-19T00:45:59.212Z,98.74
2023-01-19T00:51:01.433Z,98.37
2023-01-19T00:56:05.568Z,98.09
2023-01-19T01:01:07.652Z,98.07
2023-01-19T01:06:09.866Z,98.27
2023-01-19T01:11:13.370Z,98.66
2023-01-19T01:16:16.459Z,98.68
2023-01-19T01:21:18.571Z,98.85
2023-01-19T01:26:22.207Z,98.91
2023-01-19T01:31:24.608Z,99.31
2023-01-19T01:36:26.742Z,99.31
2023-01-19T01:41:30.506Z,99.22
2023-01-19T01:46:32.789Z,98.87
2023-01-19T01:51:40.160Z,99.36
2023-01-19T01:56:45.642Z,99.59
2023-01-19T02:01:47.856Z,100.00
2023-01-19T02:06:50.614Z,100.00
2023-01-19T02:11:55.108Z,99.85
2023-01-19T02:16:57.523Z,100.00
2023-01-19T02:22:05.701Z,99.63
2023-01-19T02:27:10.125Z,100.00
2023-01-19T02:32:12.098Z,100.00
2023-01-19T02:37:17.446Z,100.00
2023-01-19T02:42:25.897Z,100.00
2023-01-19T02:47:37.727Z,100.00
2023-01-19T02:52:39.895Z,100.00
2023-01-19T02:57:59.239Z,100.00
2023-01-19T03:03:17.208Z,100.00
2023-01-19T03:08:30.958Z,100.00
2023-01-19T03:13:44.742Z,100.00
2023-01-19T03:18:52.390Z,100.00
2023-01-19T03:23:58.780Z,100.00
2023-01-19T03:29:03.666Z,100.00
2023-01-19T03:34:08.400Z,100.00
2023-01-19T03:39:13.230Z,100.00
2023-01-19T03:44:17.433Z,100.00
2023-01-19T03:49:19.806Z,100.00
2023-01-19T03:54:21.939Z,100.00
2023-01-19T03:59:25.327Z,100.00
2023-01-19T04:04:27.468Z,100.00
2023-01-19T04:09:29.686Z,100.00
2023-01-19T04:14:33.360Z,100.00
2023-01-19T04:19:35.608Z,100.00
2023-01-19T04:24:37.697Z,100.00
2023-01-19T04:29:41.162Z,100.00
2023-01-19T04:34:43.376Z,100.00
2023-01-19T04:39:45.909Z,100.00
2023-01-19T04:44:49.464Z,100.00
2023-01-19T04:49:51.632Z,100.00
2023-01-19T04:54:53.516Z,100.00
2023-01-19T04:59:57.358Z,100.00
2023-01-19T05:04:59.580Z,100.00
2023-01-19T05:10:01.591Z,100.00
2023-01-19T05:15:06.013Z,100.00
2023-01-19T05:20:10.539Z,100.00
2023-01-19T05:25:12.605Z,100.00
2023-01-19T05:30:16.924Z,100.00
2023-01-19T05:35:27.803Z,100.00
2023-01-19T05:40:34.209Z,99.61
2023-01-19T05:45:37.687Z,99.33
2023-01-19T05:50:39.822Z,99.43
2023-01-19T05:55:42.144Z,99.53
2023-01-19T06:00:45.805Z,98.89
2023-01-19T06:05:47.886Z,98.60
2023-01-19T06:10:50.164Z,98.23
2023-01-19T06:15:58.126Z,97.90
2023-01-19T06:21:03.761Z,97.88
2023-01-19T06:26:06.088Z,97.80
2023-01-19T06:31:09.728Z,97.23
2023-01-19T06:36:11.632Z,97.56
2023-01-19T06:41:13.647Z,97.47
2023-01-19T06:46:17.323Z,96.72
2023-01-19T06:51:19.477Z,97.32
2023-01-19T06:56:21.655Z,96.99
2023-01-19T07:01:25.112Z,96.97
2023-01-19T07:06:27.392Z,96.75
2023-01-19T07:11:33.054Z,96.65
2023-01-19T07:16:36.498Z,96.96
2023-01-19T07:21:38.419Z,97.74
2023-01-19T07:26:40.151Z,97.58
2023-01-19T07:31:43.345Z,97.52
2023-01-19T07:36:45.664Z,96.76
2023-01-19T07:41:48.458Z,95.96
2023-01-19T07:46:51.554Z,96.01
2023-01-19T07:51:53.283Z,95.64
2023-01-19T07:56:55.215Z,95.15
2023-01-19T08:01:58.674Z,95.28
2023-01-19T08:07:00.525Z,95.19
2023-01-19T08:12:02.888Z,95.44
2023-01-19T08:17:06.885Z,95.53
2023-01-19T08:22:09.842Z,94.62
2023-01-19T08:27:15.096Z,93.84
2023-01-19T08:32:18.335Z,93.32
2023-01-19T08:37:20.578Z,93.15
2023-01-19T08:42:22.603Z,92.45
2023-01-19T08:47:26.119Z,92.58
2023-01-19T08:52:27.887Z,92.32
2023-01-19T08:57:29.971Z,92.29
2023-01-19T09:02:33.237Z,91.44
2023-01-19T09:07:35.771Z,90.96
2023-01-19T09:12:38.321Z,90.33
2023-01-19T09:17:42.070Z,89.72
2023-01-19T09:22:44.616Z,89.42
2023-01-19T09:27:46.771Z,88.38
2023-01-19T09:32:50.096Z,87.98
2023-01-19T09:37:51.870Z,87.57
2023-01-19T09:42:57.169Z,86.17
2023-01-19T09:48:04.482Z,86.30
2023-01-19T09:53:16.712Z,84.43
2023-01-19T09:58:18.872Z,84.29
2023-01-19T10:03:24.222Z,83.78
2023-01-19T10:08:35.017Z,82.20
2023-01-19T10:13:44.115Z,80.70
2023-01-19T10:18:49.410Z,60.73
2023-01-19T10:23:56.115Z,59.13
2023-01-19T10:29:02.040Z,51.37
2023-01-19T10:34:05.236Z,52.97
2023-01-19T10:39:12.092Z,49.48
2023-01-19T10:44:24.141Z,51.30
2023-01-19T10:49:29.465Z,56.35
2023-01-19T10:54:34.064Z,55.25
2023-01-19T10:59:38.323Z,50.51
2023-01-19T11:04:41.733Z,49.66
2023-01-19T11:09:43.936Z,46.62
2023-01-19T11:14:46.984Z,43.03
2023-01-19T11:19:59.477Z,46.36
2023-01-19T11:25:04.798Z,46.74
2023-01-19T11:30:17.478Z,45.69
2023-01-19T11:35:35.145Z,40.91
2023-01-19T11:40:37.104Z,42.75
2023-01-19T11:45:40.150Z,45.67
2023-01-19T11:50:45.075Z,52.63
2023-01-19T11:55:52.688Z,60.71
2023-01-19T12:00:58.696Z,63.33
2023-01-19T12:06:09.219Z,65.52
2023-01-19T12:11:16.283Z,66.12
2023-01-19T12:16:21.039Z,66.78
2023-01-19T12:21:24.251Z,66.66
2023-01-19T12:26:31.047Z,66.87
2023-01-19T12:31:33.616Z,66.00
2023-01-19T12:36:38.307Z,66.35
2023-01-19T12:41:41.589Z,66.40
2023-01-19T12:46:45.484Z,64.89
2023-01-19T12:51:51.246Z,65.24
2023-01-19T12:56:59.793Z,65.82
2023-01-19T13:02:41.275Z,66.46
2023-01-19T13:08:22.522Z,66.48
2023-01-19T13:13:26.967Z,66.04
2023-01-19T13:18:31.617Z,65.95
2023-01-19T13:23:53.361Z,67.36
2023-01-19T13:28:58.766Z,69.46
2023-01-19T13:34:02.695Z,70.19
2023-01-19T13:39:12.558Z,70.91
2023-01-19T13:44:21.311Z,71.63
2023-01-19T13:49:29.625Z,71.57
2023-01-19T13:54:33.203Z,71.54
2023-01-19T13:59:35.677Z,72.02
2023-01-19T14:04:37.422Z,72.77
2023-01-19T14:09:41.016Z,74.55
2023-01-19T14:14:44.294Z,75.79
2023-01-19T14:19:50.451Z,75.98
2023-01-19T14:24:53.603Z,76.90
2023-01-19T14:30:19.227Z,77.74
2023-01-19T14:35:24.775Z,78.46
2023-01-19T14:40:29.235Z,79.52
2023-01-19T14:45:34.869Z,79.34
2023-01-19T14:50:39.802Z,80.50
2023-01-19T14:55:47.641Z,81.21
2023-01-19T15:00:50.935Z,82.26
2023-01-19T15:05:55.801Z,83.06
2023-01-19T15:11:03.727Z,84.12
2023-01-19T15:16:06.451Z,84.96
2023-01-19T15:21:11.925Z,85.13
2023-01-19T15:26:16.993Z,85.65
2023-01-19T15:31:21.349Z,85.88
2023-01-19T15:36:26.225Z,85.99
2023-01-19T15:41:29.515Z,86.86
2023-01-19T15:46:31.484Z,86.81
2023-01-19T15:51:33.229Z,86.62
2023-01-19T15:56:36.439Z,86.66
2023-01-19T16:01:39.928Z,86.68
2023-01-19T16:06:42.091Z,86.63
2023-01-19T16:11:46.087Z,86.67
2023-01-19T16:16:48.251Z,86.85
2023-01-19T16:21:50.311Z,85.99
2023-01-19T16:26:53.844Z,85.66
2023-01-19T16:31:55.888Z,85.59
2023-01-19T16:36:57.766Z,85.49
2023-01-19T16:42:00.891Z,85.33
2023-01-19T16:47:03.101Z,85.73
2023-01-19T16:52:04.951Z,85.50
2023-01-19T16:57:09.102Z,85.61
2023-01-19T17:02:11.410Z,85.65
2023-01-19T17:07:13.584Z,85.58
2023-01-19T17:12:17.142Z,85.75
2023-01-19T17:17:18.916Z,86.02
2023-01-19T17:22:28.929Z,86.53
2023-01-19T17:27:35.469Z,86.18
2023-01-19T17:32:38.150Z,85.73
2023-01-19T17:37:40.285Z,85.36
2023-01-19T17:42:43.382Z,85.11
2023-01-19T17:47:48.248Z,85.02
2023-01-19T17:52:50.328Z,84.96
2023-01-19T17:57:53.890Z,84.52
2023-01-19T18:02:55.824Z,84.27
2023-01-19T18:07:59.858Z,84.08
2023-01-19T18:13:03.037Z,84.26
2023-01-19T18:18:05.257Z,84.41
2023-01-19T18:23:07.651Z,84.77
2023-01-19T18:28:11.074Z,84.73
2023-01-19T18:33:13.019Z,84.72
2023-01-19T18:38:15.633Z,84.89
2023-01-19T18:43:19.224Z,84.85
2023-01-19T18:48:21.386Z,84.86
2023-01-19T18:53:23.885Z,84.71
2023-01-19T18:58:27.197Z,85.00
2023-01-19T19:03:30.053Z,84.63
2023-01-19T19:08:33.360Z,84.58
2023-01-19T19:13:36.484Z,84.82
2023-01-19T19:18:39.632Z,84.98
2023-01-19T19:23:41.357Z,85.40
2023-01-19T19:28:44.897Z,85.41
2023-01-19T19:33:48.613Z,85.20
2023-01-19T19:38:51.110Z,85.56
2023-01-19T19:43:55.609Z,86.03
2023-01-19T19:48:58.238Z,85.90
2023-01-19T19:54:01.685Z,85.99
2023-01-19T19:59:05.089Z,86.11
2023-01-19T20:04:08.923Z,86.45
2023-01-19T20:09:12.544Z,86.98
2023-01-19T20:14:16.613Z,87.14
2023-01-19T20:19:18.837Z,87.15
2023-01-19T20:24:21.308Z,87.43
2023-01-19T20:29:24.685Z,87.60
2023-01-19T20:34:32.830Z,87.80
2023-01-19T20:39:35.336Z,87.63
2023-01-19T20:44:38.617Z,87.76
2023-01-19T20:49:41.527Z,88.01
2023-01-19T20:54:43.591Z,88.26
2023-01-19T20:59:47.088Z,88.44
2023-01-19T21:04:49.294Z,88.69
2023-01-19T21:09:51.377Z,89.00
2023-01-19T21:14:54.825Z,89.42
2023-01-19T21:19:56.917Z,89.00
2023-01-19T21:24:59.217Z,87.53
2023-01-19T21:30:02.780Z,86.09
2023-01-19T21:35:06.183Z,86.18
2023-01-19T21:40:09.402Z,85.85
2023-01-19T21:45:13.928Z,86.50
2023-01-19T21:50:16.475Z,86.88
2023-01-19T21:55:18.614Z,87.81
2023-01-19T22:00:22.248Z,88.83
2023-01-19T22:05:24.368Z,89.35
2023-01-19T22:10:27.169Z,89.90
2023-01-19T22:15:30.890Z,91.32
2023-01-19T22:20:33.234Z,91.68
2023-01-19T22:25:35.041Z,92.56
2023-01-19T22:30:38.575Z,92.49
2023-01-19T22:35:40.597Z,92.12
2023-01-19T22:40:42.484Z,92.07
2023-01-19T22:45:46.279Z,92.10
2023-01-19T22:50:48.761Z,92.05
2023-01-19T22:55:50.792Z,93.60
2023-01-19T23:00:54.323Z,94.06
2023-01-19T23:05:56.117Z,93.43
2023-01-19T23:10:58.655Z,92.82
2023-01-19T23:16:02.515Z,93.41
2023-01-19T23:21:07.903Z,93.30
2023-01-19T23:26:12.350Z,93.59
2023-01-19T23:31:17.940Z,93.09
2023-01-19T23:36:21.070Z,93.45
2023-01-19T23:41:24.230Z,93.72
2023-01-19T23:46:27.907Z,93.75
2023-01-19T23:51:31.461Z,93.46
2023-01-19T23:56:35.025Z,93.53
